Terminal Aerodrome Forecast
Issued by NWS Northern Indiana

Home | Current Version | Previous Version | Text Only | Print | Product List | Glossary Off
Versions: 1 2 3 4 5 6 7 8 9 10 11 12 13 14 15 16

000
FTUS43 KIWX 261130
TAFFWA
TAF
KFWA 261130Z 2612/2712 28003KT P6SM FEW025 BKN035
      TEMPO 2612/2614 BKN025
     FM261400 32008KT P6SM BKN035
     FM262300 31003KT P6SM SCT040
     FM270800 00000KT 6SM BR FEW040=

USA.gov is the U.S. government's official web portal to all federal, state and local government web resources and services.